aviador You're here:

GMME Decoded Metar

RABAT in MOROCCO
Report Time2017-10-20 16:00:00
UTC Time2017-10-20 16:08:08
Flight Rules vfr VFR
Wind010° at 12 kt
W.Decomp.*RWY 03: 11.4 kt HW 3.7 kt LCW
W.Rank010° ranks 13
Current wind is above 010° avg. (7.9)
Visibility9999 m
Phenomena:N/A
Clouds:N/A
Expected CloudBase > 3,200 ft AGL from Temp-Dew spread
CeilingNone
Temp22°C (ISA +7)
Dew Point14°C (61% RH)
AAT19.0°C
QNH1020 hPa
Density Alt1,099 ft
Elevation246 ft
Report Wrong Elevation
Raw Report
METAR GMME 201600Z 01012KT CAVOK 22/14 Q1020 NOSIG=

Extra information for GMME:More info

Metar Taf Metar & Taf Last 4 Metars F.Rules Stats Wind Profile Meteogram Temp Stats Airport Information Weather charts Add Link Nearby VenuesMetar ALERT Operation Metar Decoded Social comments